Terminal Aerodrome Forecast
Issued by NWS Tulsa, OK

Home | Current Version | Previous Version | Text Only | Print | Product List | Glossary On
Versions: 1 2 3 4 5 6 7 8 9 10 11 12 13 14 15 16
000
FTUS44 KTSA 231100
TAFFSM
TAF
KFSM 231127Z 2312/2412 08004KT P6SM BKN090
     FM240000 00000KT P6SM SCT050
     FM240800 00000KT 4SM BR SCT050=

USA.gov is the U.S. government's official web portal to all federal, state and local government web resources and services.